Time;durP1;ratioP1;P1;durP2;ratioP2;P2;SDS_P1;SDS_P2;PMS_P1;PMS_P2;Temp;Humidity;BMP_temperature;BMP_pressure;BME280_temperature;BME280_humidity;BME280_pressure;Samples;Min_cycle;Max_cycle;Signal;HPM_P1;HPM_P2
2021/09/29 00:01:40;;;;;;;4.10;3.63;;;10.70;99.90;;;;;;477780;248;28543;-76
2021/09/29 00:03:41;;;;;;;3.30;3.00;;;10.50;99.90;;;;;;477765;248;27963;-76
2021/09/29 00:05:42;;;;;;;3.40;3.07;;;10.50;99.90;;;;;;477753;248;27761;-76
2021/09/29 00:07:43;;;;;;;3.43;3.07;;;10.50;99.90;;;;;;477747;248;27946;-76
2021/09/29 00:09:45;;;;;;;4.20;3.80;;;10.60;99.90;;;;;;477740;248;27930;-75
2021/09/29 00:11:46;;;;;;;4.43;3.20;;;10.60;99.90;;;;;;477748;248;28027;-76
2021/09/29 00:13:47;;;;;;;4.47;3.50;;;10.70;99.90;;;;;;477774;249;27822;-76
2021/09/29 00:15:48;;;;;;;5.30;3.83;;;10.70;99.90;;;;;;477759;248;27895;-76
2021/09/29 00:17:50;;;;;;;5.10;3.70;;;10.80;99.90;;;;;;477753;248;28137;-76
2021/09/29 00:19:51;;;;;;;6.43;3.70;;;10.80;99.90;;;;;;477728;248;27930;-76
2021/09/29 00:21:52;;;;;;;7.20;3.80;;;10.80;99.90;;;;;;477750;248;28297;-76
2021/09/29 00:23:53;;;;;;;3.90;3.60;;;10.70;99.90;;;;;;477718;248;28496;-76
2021/09/29 00:25:55;;;;;;;3.97;3.27;;;10.80;99.90;;;;;;477701;248;28216;-76
2021/09/29 00:27:56;;;;;;;4.63;3.70;;;10.80;99.90;;;;;;477692;248;28067;-75
2021/09/29 00:30:00;;;;;;;4.03;3.63;;;10.90;99.90;;;;;;477733;248;28011;-76
2021/09/29 00:31:59;;;;;;;3.93;3.63;;;11.00;99.90;;;;;;477703;247;28002;-76
2021/09/29 00:34:09;;;;;;;3.83;3.20;;;11.10;99.90;;;;;;477704;248;27888;-76
2021/09/29 00:36:04;;;;;;;3.20;2.90;;;11.10;99.90;;;;;;477516;248;27919;-76
2021/09/29 00:38:05;;;;;;;3.80;2.70;;;11.20;99.90;;;;;;477727;248;27911;-76
2021/09/29 00:40:06;;;;;;;3.20;2.93;;;11.20;99.90;;;;;;477719;248;28363;-76
2021/09/29 00:42:08;;;;;;;3.30;2.73;;;11.20;99.90;;;;;;477727;248;28495;-76
2021/09/29 00:44:09;;;;;;;3.83;3.23;;;11.20;99.90;;;;;;477700;248;28445;-76
2021/09/29 00:46:10;;;;;;;3.00;2.80;;;11.20;99.90;;;;;;477715;248;27910;-76
2021/09/29 00:48:11;;;;;;;3.27;2.97;;;11.30;99.90;;;;;;477728;248;27563;-76
2021/09/29 00:50:13;;;;;;;4.20;3.80;;;11.30;99.90;;;;;;477706;248;28079;-76
2021/09/29 00:52:14;;;;;;;3.30;3.10;;;11.40;99.90;;;;;;477730;248;28006;-76
2021/09/29 00:54:15;;;;;;;3.30;3.00;;;11.30;99.90;;;;;;477702;248;27937;-76
2021/09/29 00:56:16;;;;;;;5.40;3.37;;;11.40;99.90;;;;;;477660;248;27920;-76
2021/09/29 00:58:18;;;;;;;3.60;3.17;;;11.20;99.90;;;;;;477753;248;28522;-76
2021/09/29 01:00:19;;;;;;;6.73;3.03;;;11.20;99.90;;;;;;477704;248;28001;-76
2021/09/29 01:02:20;;;;;;;4.40;3.10;;;11.30;99.90;;;;;;477725;248;27940;-76
2021/09/29 01:04:21;;;;;;;4.23;3.33;;;11.40;99.90;;;;;;477711;248;28453;-76
2021/09/29 01:06:23;;;;;;;4.47;3.20;;;11.40;99.90;;;;;;477732;248;28455;-76
2021/09/29 01:08:24;;;;;;;3.50;3.23;;;11.40;99.90;;;;;;477744;248;28497;-76
2021/09/29 01:10:25;;;;;;;3.57;3.23;;;11.50;99.90;;;;;;477704;248;27862;-76
2021/09/29 01:12:26;;;;;;;3.70;3.40;;;11.60;99.90;;;;;;477688;248;27911;-76
2021/09/29 01:14:28;;;;;;;3.57;3.27;;;11.70;99.90;;;;;;477689;248;27982;-77
2021/09/29 01:16:29;;;;;;;3.37;3.07;;;11.70;99.90;;;;;;477699;248;28007;-77
2021/09/29 01:18:30;;;;;;;2.90;2.70;;;11.70;99.90;;;;;;477735;248;28028;-76
2021/09/29 01:20:31;;;;;;;3.00;2.70;;;11.60;99.90;;;;;;477696;248;28112;-76
2021/09/29 01:22:33;;;;;;;3.37;3.07;;;11.70;99.90;;;;;;477710;248;28051;-76
2021/09/29 01:24:34;;;;;;;3.20;3.00;;;11.70;99.90;;;;;;477673;249;28253;-76
2021/09/29 01:26:35;;;;;;;2.67;2.57;;;11.80;99.90;;;;;;477716;248;28018;-76
2021/09/29 01:28:36;;;;;;;2.70;2.50;;;11.80;99.90;;;;;;477746;248;28447;-76
2021/09/29 01:30:38;;;;;;;2.60;2.40;;;11.80;99.90;;;;;;477703;249;28696;-76
2021/09/29 01:32:39;;;;;;;3.00;2.80;;;11.80;99.90;;;;;;477698;248;28615;-76
2021/09/29 01:34:40;;;;;;;2.83;2.63;;;11.80;99.90;;;;;;477690;248;28568;-76
2021/09/29 01:36:41;;;;;;;2.90;2.70;;;11.90;99.90;;;;;;477762;248;27916;-76
2021/09/29 01:38:43;;;;;;;2.90;2.70;;;11.90;99.90;;;;;;478021;248;28268;-76
2021/09/29 01:40:44;;;;;;;3.03;2.73;;;11.80;99.90;;;;;;478066;248;27845;-76
2021/09/29 01:42:45;;;;;;;3.37;3.07;;;11.70;99.90;;;;;;478024;248;28194;-76
2021/09/29 01:44:46;;;;;;;2.73;2.50;;;11.70;99.90;;;;;;478045;248;28185;-76
2021/09/29 01:46:48;;;;;;;2.73;2.53;;;11.60;99.90;;;;;;478077;248;28057;-76
2021/09/29 01:48:49;;;;;;;2.93;2.73;;;11.60;99.90;;;;;;478020;248;28003;-76
2021/09/29 01:50:50;;;;;;;2.83;2.63;;;11.50;99.90;;;;;;477987;248;27970;-76
2021/09/29 01:52:51;;;;;;;2.37;2.27;;;11.50;99.90;;;;;;477910;248;28619;-76
2021/09/29 01:54:53;;;;;;;2.87;2.67;;;11.50;99.90;;;;;;477882;248;28344;-76
2021/09/29 01:56:54;;;;;;;2.87;2.67;;;11.50;99.90;;;;;;477885;248;28560;-76
2021/09/29 01:58:55;;;;;;;3.33;3.03;;;11.40;99.90;;;;;;477857;248;28363;-76
2021/09/29 02:00:56;;;;;;;3.30;3.00;;;11.40;99.90;;;;;;477860;248;27938;-76
2021/09/29 02:03:00;;;;;;;3.40;3.10;;;11.40;99.90;;;;;;477839;248;28095;-76
2021/09/29 02:04:59;;;;;;;3.07;2.80;;;11.40;99.90;;;;;;478010;248;28125;-76
2021/09/29 02:07:00;;;;;;;3.00;2.47;;;11.30;99.90;;;;;;478056;248;27968;-76
2021/09/29 02:09:01;;;;;;;2.93;2.70;;;11.30;99.90;;;;;;478055;248;27942;-76
2021/09/29 02:11:03;;;;;;;2.93;2.73;;;11.30;99.90;;;;;;478102;248;27975;-76
2021/09/29 02:13:04;;;;;;;4.30;2.67;;;11.20;99.90;;;;;;478102;248;27821;-76
2021/09/29 02:15:05;;;;;;;2.97;2.70;;;11.20;99.90;;;;;;477984;248;27794;-76
2021/09/29 02:17:06;;;;;;;3.30;3.00;;;11.10;99.90;;;;;;477933;248;27974;-76
2021/09/29 02:19:08;;;;;;;2.87;2.67;;;11.10;99.90;;;;;;477915;248;28598;-76
2021/09/29 02:21:09;;;;;;;2.80;2.60;;;11.00;99.90;;;;;;477870;248;28464;-76
2021/09/29 02:23:10;;;;;;;3.00;2.80;;;10.90;99.90;;;;;;477916;248;28301;-76
2021/09/29 02:25:11;;;;;;;3.30;3.10;;;10.90;99.90;;;;;;477885;248;27923;-76
2021/09/29 02:27:13;;;;;;;2.60;2.40;;;10.90;99.90;;;;;;477859;248;28049;-76
2021/09/29 02:29:14;;;;;;;4.87;2.80;;;10.80;99.90;;;;;;477824;248;27880;-76
2021/09/29 02:31:16;;;;;;;3.20;2.90;;;10.80;99.90;;;;;;477879;248;28046;-76
2021/09/29 02:33:16;;;;;;;4.13;2.77;;;10.80;99.90;;;;;;477848;248;27883;-76
2021/09/29 02:35:18;;;;;;;3.53;3.23;;;10.80;99.90;;;;;;477887;248;27906;-76
2021/09/29 02:37:19;;;;;;;3.60;3.23;;;10.70;99.90;;;;;;477834;249;27895;-76
2021/09/29 02:39:20;;;;;;;2.97;2.77;;;10.70;99.90;;;;;;477849;248;27411;-76
2021/09/29 02:41:21;;;;;;;3.17;2.97;;;10.60;99.90;;;;;;477857;248;27948;-76
2021/09/29 02:43:23;;;;;;;3.40;3.10;;;10.60;99.90;;;;;;477863;248;28246;-76
2021/09/29 02:45:24;;;;;;;3.50;3.20;;;10.60;99.90;;;;;;477829;248;28255;-76
2021/09/29 02:47:25;;;;;;;4.37;2.87;;;10.60;99.90;;;;;;477885;248;28469;-76
2021/09/29 02:49:26;;;;;;;4.27;3.47;;;10.50;99.90;;;;;;477850;248;27908;-76
2021/09/29 02:51:28;;;;;;;2.60;2.50;;;10.40;99.90;;;;;;477835;248;27996;-76
2021/09/29 02:53:29;;;;;;;3.07;2.80;;;10.40;99.90;;;;;;477825;248;27789;-76
2021/09/29 02:55:30;;;;;;;3.17;2.97;;;10.40;99.90;;;;;;477801;248;28058;-76
2021/09/29 02:57:31;;;;;;;3.53;3.23;;;10.30;99.90;;;;;;477781;248;27781;-75
2021/09/29 02:59:33;;;;;;;3.40;3.10;;;10.30;99.90;;;;;;477845;248;27950;-76
2021/09/29 03:01:34;;;;;;;5.30;3.17;;;10.30;99.90;;;;;;477830;248;27952;-76
2021/09/29 03:03:35;;;;;;;3.77;3.27;;;10.20;99.90;;;;;;477792;248;27748;-76
2021/09/29 03:05:36;;;;;;;3.73;3.43;;;10.20;99.90;;;;;;477802;249;27792;-76
2021/09/29 03:07:38;;;;;;;3.43;3.13;;;10.20;99.90;;;;;;477766;248;28488;-76
2021/09/29 03:09:39;;;;;;;3.70;3.40;;;10.20;99.90;;;;;;477859;248;28449;-76
2021/09/29 03:11:40;;;;;;;3.60;3.30;;;10.20;99.90;;;;;;477786;248;28434;-76
2021/09/29 03:13:42;;;;;;;3.77;3.33;;;10.20;99.90;;;;;;477857;248;28429;-76
2021/09/29 03:15:43;;;;;;;8.37;3.30;;;10.20;99.90;;;;;;477851;248;28414;-76
2021/09/29 03:17:44;;;;;;;5.30;3.27;;;10.20;99.90;;;;;;477858;248;28142;-76
2021/09/29 03:19:45;;;;;;;3.80;3.50;;;10.20;99.90;;;;;;477801;248;28339;-76
2021/09/29 03:21:47;;;;;;;3.73;3.43;;;10.20;99.90;;;;;;477758;248;27885;-76
2021/09/29 03:23:48;;;;;;;3.97;3.33;;;10.20;99.90;;;;;;477857;248;27986;-76
2021/09/29 03:25:49;;;;;;;3.60;3.30;;;10.20;99.90;;;;;;477852;248;27639;-76
2021/09/29 03:27:50;;;;;;;5.47;3.60;;;10.20;99.90;;;;;;477779;248;28065;-76
2021/09/29 03:29:52;;;;;;;4.80;3.90;;;10.10;99.90;;;;;;477798;248;27846;-76
2021/09/29 03:31:53;;;;;;;3.63;3.33;;;10.20;99.90;;;;;;477797;248;27834;-76
2021/09/29 03:33:54;;;;;;;4.77;3.87;;;10.30;99.90;;;;;;477797;248;28161;-76
2021/09/29 03:35:56;;;;;;;5.07;3.90;;;10.40;99.90;;;;;;477815;248;27652;-76
2021/09/29 03:37:57;;;;;;;4.17;3.40;;;10.50;99.90;;;;;;477832;248;28015;-76
2021/09/29 03:39:58;;;;;;;4.77;4.03;;;10.50;99.90;;;;;;477801;248;27973;-76
2021/09/29 03:41:59;;;;;;;3.53;3.23;;;10.50;99.90;;;;;;477811;249;28435;-77
2021/09/29 03:44:00;;;;;;;3.87;3.50;;;10.50;99.90;;;;;;477848;248;28413;-75
2021/09/29 03:46:02;;;;;;;3.33;3.13;;;10.40;99.90;;;;;;477845;248;27769;-76
2021/09/29 03:48:03;;;;;;;3.53;3.23;;;10.40;99.90;;;;;;477868;248;28053;-76
2021/09/29 03:50:04;;;;;;;3.70;3.40;;;10.40;99.90;;;;;;477884;248;28033;-76
2021/09/29 03:52:05;;;;;;;4.63;3.47;;;10.50;99.90;;;;;;477830;248;28088;-75
2021/09/29 03:54:07;;;;;;;3.90;3.50;;;10.50;99.90;;;;;;477757;248;27939;-75
2021/09/29 03:56:08;;;;;;;3.90;3.53;;;10.50;99.90;;;;;;477754;248;27522;-74
2021/09/29 03:58:09;;;;;;;3.90;3.53;;;10.40;99.90;;;;;;477717;248;27816;-75
2021/09/29 04:00:10;;;;;;;4.43;3.57;;;10.40;99.90;;;;;;477790;248;27921;-76
2021/09/29 04:02:12;;;;;;;4.27;3.90;;;10.30;99.90;;;;;;477860;248;27939;-77
2021/09/29 04:04:13;;;;;;;5.37;4.93;;;10.30;99.90;;;;;;477878;248;27897;-77
2021/09/29 04:06:14;;;;;;;4.50;3.70;;;10.30;99.90;;;;;;477791;248;28404;-74
2021/09/29 04:08:15;;;;;;;6.47;4.03;;;10.30;99.90;;;;;;477743;248;28308;-77
2021/09/29 04:10:17;;;;;;;4.87;4.47;;;10.20;99.90;;;;;;477816;248;27891;-76
2021/09/29 04:12:21;;;;;;;4.23;3.83;;;10.30;99.90;;;;;;477823;248;28005;-77
2021/09/29 04:14:20;;;;;;;3.70;3.40;;;10.30;99.90;;;;;;477732;248;27923;-77
2021/09/29 04:16:20;;;;;;;4.03;3.73;;;10.40;99.90;;;;;;477758;248;28022;-77
2021/09/29 04:18:22;;;;;;;4.57;3.80;;;10.50;99.90;;;;;;477843;248;28014;-77
2021/09/29 04:20:23;;;;;;;3.63;3.33;;;10.60;99.90;;;;;;477820;248;28050;-77
2021/09/29 04:22:24;;;;;;;3.80;3.50;;;10.60;99.90;;;;;;477846;248;27913;-76
2021/09/29 04:24:26;;;;;;;4.20;3.17;;;10.60;99.90;;;;;;477853;248;28026;-76
2021/09/29 04:26:27;;;;;;;3.80;3.50;;;10.70;99.90;;;;;;478002;248;28353;-76
2021/09/29 04:28:29;;;;;;;3.83;3.40;;;10.70;99.90;;;;;;477830;249;28374;-77
2021/09/29 04:30:29;;;;;;;4.00;3.70;;;10.60;99.90;;;;;;477883;249;28510;-76
2021/09/29 04:32:31;;;;;;;4.37;3.97;;;10.60;99.90;;;;;;477844;248;27557;-76
2021/09/29 04:34:32;;;;;;;4.47;3.70;;;10.60;99.90;;;;;;477830;248;27722;-77
2021/09/29 04:36:33;;;;;;;4.30;3.80;;;10.50;99.90;;;;;;477924;248;27620;-76
2021/09/29 04:38:34;;;;;;;3.80;3.50;;;10.50;99.90;;;;;;477871;248;27917;-77
2021/09/29 04:40:36;;;;;;;6.33;3.70;;;10.50;99.90;;;;;;477794;248;27880;-77
2021/09/29 04:42:37;;;;;;;7.00;3.73;;;10.50;99.90;;;;;;477850;248;27934;-77
2021/09/29 04:44:38;;;;;;;4.60;3.97;;;10.50;99.90;;;;;;477868;248;28110;-77
2021/09/29 04:46:39;;;;;;;7.47;3.67;;;10.50;99.90;;;;;;477859;248;27796;-76
2021/09/29 04:48:41;;;;;;;3.27;3.07;;;10.50;99.90;;;;;;477819;248;27767;-77
2021/09/29 04:50:42;;;;;;;3.60;3.30;;;10.50;99.90;;;;;;477861;248;28405;-77
2021/09/29 04:52:43;;;;;;;4.47;3.83;;;10.50;99.90;;;;;;477898;248;28331;-76
2021/09/29 04:54:44;;;;;;;3.60;3.30;;;10.50;99.90;;;;;;477888;248;28250;-76
2021/09/29 04:56:46;;;;;;;3.90;3.50;;;10.50;99.90;;;;;;477909;248;28169;-77
2021/09/29 04:58:47;;;;;;;4.03;3.63;;;10.40;99.90;;;;;;477880;248;27506;-76
2021/09/29 05:00:48;;;;;;;5.93;3.30;;;10.40;99.90;;;;;;477831;248;27797;-76
2021/09/29 05:02:49;;;;;;;3.60;3.20;;;10.30;99.90;;;;;;477847;248;27908;-77
2021/09/29 05:04:51;;;;;;;5.87;3.60;;;10.30;99.90;;;;;;477787;249;27815;-77
2021/09/29 05:06:52;;;;;;;2.90;2.80;;;10.20;99.90;;;;;;477870;248;27991;-76
2021/09/29 05:08:53;;;;;;;3.70;3.40;;;10.20;99.90;;;;;;477859;248;27894;-77
2021/09/29 05:10:54;;;;;;;3.60;3.27;;;10.20;99.90;;;;;;477826;248;28023;-77
2021/09/29 05:12:56;;;;;;;3.37;3.17;;;10.20;99.90;;;;;;477841;248;27847;-77
2021/09/29 05:14:57;;;;;;;3.30;3.00;;;10.10;99.90;;;;;;477853;248;28008;-77
2021/09/29 05:16:58;;;;;;;2.93;2.80;;;10.10;99.90;;;;;;477803;248;27813;-76
2021/09/29 05:18:59;;;;;;;3.00;2.80;;;10.10;99.90;;;;;;477855;248;28457;-77
2021/09/29 05:21:01;;;;;;;2.90;2.70;;;10.10;99.90;;;;;;477803;248;27950;-76
2021/09/29 05:23:02;;;;;;;3.13;2.73;;;10.10;99.90;;;;;;477639;248;28002;-76
2021/09/29 05:25:03;;;;;;;4.40;3.10;;;10.10;99.90;;;;;;477853;248;27867;-76
2021/09/29 05:27:04;;;;;;;2.70;2.50;;;10.20;99.90;;;;;;477836;248;27906;-76
2021/09/29 05:29:07;;;;;;;2.90;2.70;;;10.20;99.90;;;;;;477840;248;27618;-77
2021/09/29 05:31:07;;;;;;;2.80;2.60;;;10.30;99.90;;;;;;477802;248;27928;-76
2021/09/29 05:33:08;;;;;;;3.00;2.47;;;10.40;99.90;;;;;;477834;248;27897;-76
2021/09/29 05:35:09;;;;;;;2.57;2.30;;;10.50;99.90;;;;;;477839;248;27841;-76
2021/09/29 05:37:11;;;;;;;2.70;2.50;;;10.50;99.90;;;;;;477848;248;27912;-77
2021/09/29 05:39:12;;;;;;;3.43;2.50;;;10.60;99.90;;;;;;477838;248;27881;-76
2021/09/29 05:41:13;;;;;;;3.47;3.17;;;10.60;99.90;;;;;;477839;248;28370;-77
2021/09/29 05:43:14;;;;;;;2.50;2.30;;;10.60;99.90;;;;;;477834;248;29145;-77
2021/09/29 05:45:16;;;;;;;2.20;2.10;;;10.60;99.90;;;;;;477852;248;28365;-76
2021/09/29 05:47:17;;;;;;;2.33;2.13;;;10.50;99.90;;;;;;477842;248;27751;-76
2021/09/29 05:49:18;;;;;;;3.00;2.00;;;10.50;99.90;;;;;;477831;248;27954;-76
2021/09/29 05:51:19;;;;;;;2.60;2.40;;;10.50;99.90;;;;;;477804;248;28007;-77
2021/09/29 05:53:21;;;;;;;1.97;1.87;;;10.60;99.90;;;;;;477861;248;27529;-76
2021/09/29 05:55:22;;;;;;;2.70;2.50;;;10.60;99.90;;;;;;477825;248;28018;-76
2021/09/29 05:57:23;;;;;;;2.87;2.43;;;10.60;99.90;;;;;;477816;248;28020;-77
2021/09/29 05:59:24;;;;;;;2.60;2.40;;;10.60;99.90;;;;;;477856;248;27645;-76
2021/09/29 06:01:26;;;;;;;2.80;2.43;;;10.50;99.90;;;;;;477853;248;27573;-76
2021/09/29 06:03:27;;;;;;;2.30;2.20;;;10.50;99.90;;;;;;477808;248;28031;-76
2021/09/29 06:05:28;;;;;;;2.30;2.00;;;10.50;99.90;;;;;;477830;249;28269;-76
2021/09/29 06:07:29;;;;;;;2.67;2.27;;;10.50;99.90;;;;;;477821;248;28339;-77
2021/09/29 06:09:31;;;;;;;4.40;2.37;;;10.50;99.90;;;;;;477860;248;28345;-77
2021/09/29 06:11:32;;;;;;;2.40;2.20;;;10.50;99.90;;;;;;477820;248;27933;-76
2021/09/29 06:13:33;;;;;;;2.27;2.10;;;10.50;99.90;;;;;;477818;248;27856;-76
2021/09/29 06:15:34;;;;;;;3.10;2.30;;;10.50;99.90;;;;;;477828;249;28049;-76
2021/09/29 06:19:37;;;;;;;2.60;2.40;;;10.50;99.90;;;;;;477817;248;27767;-77
2021/09/29 06:21:38;;;;;;;3.33;2.43;;;10.50;99.90;;;;;;477833;248;27915;-76
2021/09/29 06:23:39;;;;;;;2.67;2.23;;;10.40;99.90;;;;;;477874;249;27812;-77
2021/09/29 06:25:41;;;;;;;2.70;2.50;;;10.50;99.90;;;;;;477829;248;27406;-76
2021/09/29 06:27:42;;;;;;;2.30;2.10;;;10.50;99.90;;;;;;477878;248;27719;-76
2021/09/29 06:29:43;;;;;;;2.47;2.27;;;10.50;99.90;;;;;;477850;248;29208;-77
2021/09/29 06:31:44;;;;;;;2.23;2.13;;;10.50;99.90;;;;;;477838;249;28044;-76
2021/09/29 06:33:49;;;;;;;2.50;2.30;;;10.60;99.90;;;;;;477857;248;28360;-76
2021/09/29 06:35:47;;;;;;;3.20;2.53;;;10.60;99.90;;;;;;477827;248;27786;-76
2021/09/29 06:37:48;;;;;;;2.50;2.30;;;10.60;99.90;;;;;;477882;248;27795;-77
2021/09/29 06:39:49;;;;;;;2.47;2.20;;;10.70;99.90;;;;;;477918;248;28043;-76
2021/09/29 06:41:51;;;;;;;3.13;2.30;;;10.70;99.90;;;;;;477861;248;28011;-76
2021/09/29 06:43:52;;;;;;;2.37;2.17;;;10.80;99.90;;;;;;477887;248;27996;-76
2021/09/29 06:45:53;;;;;;;2.43;2.23;;;10.80;99.90;;;;;;477832;248;27827;-76
2021/09/29 06:47:54;;;;;;;2.57;2.37;;;10.80;99.90;;;;;;477858;248;27901;-76
2021/09/29 06:49:56;;;;;;;3.50;2.43;;;10.80;99.90;;;;;;477931;248;27939;-77
2021/09/29 06:51:57;;;;;;;3.00;2.30;;;10.90;99.90;;;;;;477883;248;27534;-77
2021/09/29 06:53:58;;;;;;;2.50;2.30;;;10.90;99.90;;;;;;477872;248;28009;-76
2021/09/29 06:56:05;;;;;;;2.53;1.90;;;10.90;99.90;;;;;;477846;248;28209;-76
2021/09/29 06:58:01;;;;;;;2.50;2.20;;;11.00;99.90;;;;;;477833;248;28400;-77
2021/09/29 07:00:02;;;;;;;3.07;2.00;;;11.10;99.90;;;;;;477903;248;28171;-77
2021/09/29 07:02:03;;;;;;;2.10;2.00;;;11.10;99.90;;;;;;477893;248;27765;-77
2021/09/29 07:04:04;;;;;;;3.10;2.10;;;11.10;99.90;;;;;;477841;248;28011;-77
2021/09/29 07:06:06;;;;;;;2.20;2.10;;;11.20;99.90;;;;;;477856;248;27963;-76
2021/09/29 07:08:07;;;;;;;2.80;2.60;;;11.20;99.90;;;;;;477814;249;27784;-77
2021/09/29 07:10:08;;;;;;;1.90;1.80;;;11.30;99.90;;;;;;477806;249;28049;-77
2021/09/29 07:12:09;;;;;;;2.97;2.20;;;11.30;99.90;;;;;;477837;248;27851;-77
2021/09/29 07:14:11;;;;;;;2.00;1.80;;;11.40;99.90;;;;;;477781;248;27778;-77
2021/09/29 07:16:12;;;;;;;2.40;2.20;;;11.70;99.90;;;;;;477892;248;28052;-77
2021/09/29 07:18:14;;;;;;;2.50;2.23;;;11.90;99.90;;;;;;477843;248;27899;-77
2021/09/29 07:20:14;;;;;;;2.40;2.20;;;12.20;99.90;;;;;;477861;248;28547;-76
2021/09/29 07:22:16;;;;;;;2.20;2.10;;;12.30;99.90;;;;;;477843;248;28593;-77
2021/09/29 07:24:17;;;;;;;2.50;2.30;;;12.30;99.90;;;;;;477848;248;28716;-77
2021/09/29 07:26:18;;;;;;;2.20;2.00;;;12.30;99.90;;;;;;477834;248;28026;-77
2021/09/29 07:28:19;;;;;;;2.53;2.03;;;12.20;99.90;;;;;;477859;248;28118;-76
2021/09/29 07:30:21;;;;;;;2.23;2.00;;;12.20;99.90;;;;;;477910;248;28116;-77
2021/09/29 07:32:22;;;;;;;3.20;2.13;;;12.20;99.90;;;;;;477851;248;27899;-77
2021/09/29 07:34:24;;;;;;;3.03;1.97;;;12.20;99.90;;;;;;477829;248;28077;-76
2021/09/29 07:36:24;;;;;;;1.93;1.83;;;12.30;99.90;;;;;;477851;248;28487;-77
2021/09/29 07:38:28;;;;;;;4.67;2.20;;;12.40;99.90;;;;;;477877;248;28128;-77
2021/09/29 07:40:27;;;;;;;3.10;1.87;;;12.30;99.90;;;;;;477819;248;28279;-77
2021/09/29 07:42:28;;;;;;;2.23;1.80;;;12.30;99.90;;;;;;477843;248;28493;-77
2021/09/29 07:44:29;;;;;;;2.30;1.70;;;12.20;99.90;;;;;;477826;248;28666;-77
2021/09/29 07:46:31;;;;;;;3.27;2.10;;;12.20;99.90;;;;;;477843;248;28890;-77
2021/09/29 07:48:33;;;;;;;2.00;1.90;;;12.20;99.90;;;;;;477832;248;28646;-77
2021/09/29 07:50:33;;;;;;;2.60;2.40;;;12.30;99.90;;;;;;477823;248;28223;-77
2021/09/29 07:52:34;;;;;;;2.30;2.20;;;12.40;99.90;;;;;;477846;248;28168;-77
2021/09/29 07:54:36;;;;;;;2.47;1.90;;;12.50;99.90;;;;;;477829;248;28266;-76
2021/09/29 07:56:37;;;;;;;2.70;2.30;;;12.60;99.90;;;;;;477829;248;28316;-76
2021/09/29 07:58:38;;;;;;;2.30;2.10;;;12.60;99.90;;;;;;477846;248;28326;-77
2021/09/29 08:00:39;;;;;;;5.90;1.73;;;12.60;99.90;;;;;;477794;248;28404;-77
2021/09/29 08:02:41;;;;;;;2.97;2.40;;;12.50;99.90;;;;;;477786;248;28126;-77
2021/09/29 08:04:42;;;;;;;4.83;2.57;;;12.50;99.90;;;;;;477848;248;28365;-77
2021/09/29 08:06:43;;;;;;;2.10;2.00;;;12.40;99.90;;;;;;477875;248;28453;-77
2021/09/29 08:08:44;;;;;;;4.37;2.70;;;12.50;99.90;;;;;;477844;248;28742;-77
2021/09/29 08:10:47;;;;;;;2.87;2.40;;;;;;;;;;477816;248;28500;-77
2021/09/29 08:12:48;;;;;;;2.43;2.23;;;12.50;99.90;;;;;;477855;248;27290;-76
2021/09/29 08:14:49;;;;;;;2.90;2.67;;;12.60;99.90;;;;;;477845;247;28491;-77
2021/09/29 08:16:51;;;;;;;2.73;2.50;;;12.60;99.90;;;;;;477797;248;28296;-77
2021/09/29 08:18:52;;;;;;;2.00;1.80;;;12.60;99.90;;;;;;477799;248;28863;-77
2021/09/29 08:20:57;;;;;;;2.70;1.37;;;;;;;;;;477768;248;29559;-77
2021/09/29 08:23:03;;;;;;;2.80;1.47;;;12.80;99.90;;;;;;477764;248;26539;-77
2021/09/29 08:27:15;;;;;;;6.40;1.77;;;12.90;99.90;;;;;;477812;248;28978;-77
2021/09/29 08:31:29;;;;;;;2.37;1.60;;;13.10;99.90;;;;;;477819;248;28149;-76
2021/09/29 08:35:51;;;;;;;2.33;1.70;;;12.90;99.90;;;;;;477745;248;28368;-78
2021/09/29 08:37:48;;;;;;;3.33;1.63;;;;;;;;;;477755;248;28125;-77
2021/09/29 08:39:53;;;;;;;3.83;1.70;;;13.10;99.90;;;;;;477671;249;26574;-77
2021/09/29 08:42:01;;;;;;;3.60;1.93;;;13.20;99.90;;;;;;477691;248;28364;-77
2021/09/29 08:44:01;;;;;;;2.43;1.60;;;13.20;99.90;;;;;;477639;248;28851;-77
2021/09/29 08:46:04;;;;;;;2.47;1.80;;;13.30;99.90;;;;;;477701;247;28106;-77
2021/09/29 08:48:13;;;;;;;3.77;2.10;;;13.20;99.90;;;;;;477690;248;28143;-77
2021/09/29 08:52:26;;;;;;;2.70;1.70;;;13.20;99.90;;;;;;477694;248;28659;-77
2021/09/29 08:54:40;;;;;;;5.00;1.80;;;13.30;99.90;;;;;;477742;247;28741;-76
2021/09/29 08:57:00;;;;;;;3.37;1.77;;;13.30;99.90;;;;;;477748;248;28154;-76
2021/09/29 09:14:50;;;;;;;2.00;1.63;;;13.10;99.90;;;;;;477803;248;29366;-77
2021/09/29 09:17:04;;;;;;;1.90;1.80;;;12.80;99.90;;;;;;477921;248;28487;-77
2021/09/29 09:19:03;;;;;;;2.73;2.20;;;12.80;99.90;;;;;;477863;248;28795;-76
2021/09/29 09:21:06;;;;;;;1.90;1.70;;;12.80;99.90;;;;;;477885;248;28099;-76
2021/09/29 09:23:05;;;;;;;2.93;1.80;;;12.80;99.90;;;;;;477816;248;28712;-76
2021/09/29 09:25:07;;;;;;;2.50;1.97;;;12.80;99.90;;;;;;477909;248;28812;-77
2021/09/29 09:27:08;;;;;;;3.23;2.27;;;12.90;99.90;;;;;;477847;248;28340;-76
2021/09/29 09:29:09;;;;;;;3.23;1.73;;;13.00;99.90;;;;;;477909;248;28765;-77
2021/09/29 09:31:10;;;;;;;3.13;1.73;;;13.00;99.90;;;;;;478058;248;29547;-77
2021/09/29 09:33:12;;;;;;;2.63;2.20;;;13.10;99.90;;;;;;478189;248;28246;-76
2021/09/29 09:35:13;;;;;;;2.57;2.07;;;13.10;99.90;;;;;;478092;248;28744;-77
2021/09/29 09:37:15;;;;;;;1.70;1.60;;;;;;;;;;478095;248;28731;-77
2021/09/29 09:39:17;;;;;;;4.67;1.87;;;13.30;99.90;;;;;;477997;247;26867;-76
2021/09/29 09:41:18;;;;;;;2.10;1.90;;;13.40;99.90;;;;;;478206;248;28316;-76
2021/09/29 09:43:19;;;;;;;2.07;1.90;;;13.50;99.90;;;;;;477763;248;28690;-75
2021/09/29 09:45:20;;;;;;;1.73;1.63;;;13.50;99.90;;;;;;477771;248;28691;-75
2021/09/29 09:47:26;;;;;;;2.70;2.00;;;13.40;99.90;;;;;;477793;248;28785;-75
2021/09/29 09:49:23;;;;;;;2.30;1.60;;;13.50;99.90;;;;;;477744;248;29004;-75
2021/09/29 09:51:24;;;;;;;1.63;1.53;;;13.60;99.90;;;;;;477901;248;28181;-76
2021/09/29 09:53:25;;;;;;;2.03;1.70;;;13.60;99.90;;;;;;477938;248;28118;-76
2021/09/29 09:55:27;;;;;;;2.43;1.67;;;13.60;99.90;;;;;;477906;248;28403;-76
2021/09/29 09:57:28;;;;;;;3.90;1.73;;;13.60;99.90;;;;;;477828;248;28430;-76
2021/09/29 09:59:30;;;;;;;2.73;1.67;;;13.60;99.90;;;;;;477857;248;28699;-77
2021/09/29 10:01:31;;;;;;;3.53;1.73;;;13.60;99.90;;;;;;477850;248;28218;-76
2021/09/29 10:03:32;;;;;;;2.13;1.87;;;13.50;99.90;;;;;;477824;248;28276;-76
2021/09/29 10:05:33;;;;;;;2.87;1.70;;;13.50;99.90;;;;;;477828;248;28219;-77
2021/09/29 10:07:34;;;;;;;2.20;1.73;;;13.40;99.90;;;;;;477927;248;28443;-76
2021/09/29 10:09:41;;;;;;;3.83;2.07;;;13.50;99.90;;;;;;477932;248;28850;-76
2021/09/29 10:11:51;;;;;;;3.00;1.90;;;13.60;99.90;;;;;;477736;248;28795;-77
2021/09/29 10:27:32;;;;;;;1.80;1.70;;;13.30;99.90;;;;;;477845;248;28748;-76
2021/09/29 10:29:33;;;;;;;3.33;2.20;;;13.30;99.90;;;;;;477807;248;28106;-76
2021/09/29 10:31:53;;;;;;;1.90;1.80;;;13.30;99.90;;;;;;477843;248;28567;-76
2021/09/29 10:33:45;;;;;;;1.63;1.53;;;13.30;99.90;;;;;;477893;248;28359;-77
2021/09/29 10:36:00;;;;;;;2.47;1.90;;;13.30;99.90;;;;;;477791;249;28048;-77
2021/09/29 10:40:16;;;;;;;4.23;1.60;;;13.40;99.90;;;;;;477737;248;28254;-76
2021/09/29 10:40:20;;;;;;;5.10;1.87;;;13.50;99.90;;;;;;477905;248;28245;-77
2021/09/29 10:43:03;;;;;;;2.43;1.60;;;13.70;99.90;;;;;;477820;248;29030;-77
2021/09/29 10:44:30;;;;;;;2.40;1.40;;;13.60;99.90;;;;;;475844;248;28118;-77
2021/09/29 10:46:36;;;;;;;6.20;1.83;;;13.50;99.90;;;;;;477754;248;28422;-76
2021/09/29 11:04:41;;;;;;;1.43;1.33;;;13.40;99.90;;;;;;477816;248;28240;-76
2021/09/29 11:06:42;;;;;;;1.80;1.70;;;13.40;99.90;;;;;;477747;248;29041;-77
2021/09/29 11:09:12;;;;;;;1.50;1.40;;;13.50;99.90;;;;;;477880;248;28221;-76
2021/09/29 11:27:36;;;;;;;1.97;1.20;;;12.40;99.90;;;;;;477851;248;28745;-77
2021/09/29 11:29:40;;;;;;;1.50;1.40;;;12.40;99.90;;;;;;477713;249;28741;-76
2021/09/29 11:33:42;;;;;;;1.00;1.00;;;12.40;99.90;;;;;;477862;249;28236;-77
2021/09/29 11:38:03;;;;;;;1.17;1.07;;;12.60;99.90;;;;;;477933;248;28776;-76
2021/09/29 11:48:32;;;;;;;1.00;1.00;;;12.90;99.90;;;;;;477957;249;28736;-77
2021/09/29 12:08:06;;;;;;;0.90;0.90;;;12.70;99.90;;;;;;477812;249;28805;-76
2021/09/29 12:10:08;;;;;;;1.80;1.27;;;12.80;99.90;;;;;;477786;248;28264;-77
2021/09/29 12:12:16;;;;;;;1.20;1.20;;;12.90;99.90;;;;;;477807;248;28340;-76
2021/09/29 12:14:08;;;;;;;2.90;1.27;;;13.00;99.90;;;;;;477772;248;28233;-76
2021/09/29 12:16:09;;;;;;;4.73;1.23;;;13.00;99.90;;;;;;477811;248;28212;-76
2021/09/29 12:18:11;;;;;;;0.90;0.90;;;13.00;99.90;;;;;;477786;248;28131;-76